Time;durP1;ratioP1;P1;durP2;ratioP2;P2;SDS_P1;SDS_P2;PMS_P1;PMS_P2;Temp;Humidity;BMP_temperature;BMP_pressure;BME280_temperature;BME280_humidity;BME280_pressure;Samples;Min_cycle;Max_cycle;Signal;HPM_P1;HPM_P2
2024/01/21 00:02:21;;;;;;;;;42.00;32.00;;;;;;;;5041668;28;61836;-77
2024/01/21 00:04:46;;;;;;;;;46.00;31.33;;;;;;;;5042870;28;61860;-77
2024/01/21 00:07:11;;;;;;;;;35.67;32.00;;;;;;;;5042812;28;62428;-77
2024/01/21 00:09:37;;;;;;;;;35.67;29.00;;;;;;;;5043183;28;61748;-77
2024/01/21 00:12:02;;;;;;;;;33.33;22.33;;;;;;;;5040816;28;62929;-77
2024/01/21 00:14:27;;;;;;;;;29.00;19.75;;;;;;;;5042207;28;61841;-77
2024/01/21 00:16:52;;;;;;;;;38.67;28.67;;;;;;;;5042403;28;61876;-77
2024/01/21 00:19:18;;;;;;;;;33.00;27.33;;;;;;;;5042972;28;61814;-77
2024/01/21 00:21:43;;;;;;;;;35.00;26.00;;;;;;;;5024167;28;63814;-77
2024/01/21 00:24:08;;;;;;;;;39.67;30.67;;;;;;;;5040910;28;61931;-77
2024/01/21 00:26:33;;;;;;;;;34.00;28.00;;;;;;;;5041975;28;61705;-77
2024/01/21 00:29:00;;;;;;;;;36.00;24.67;;;;;;;;5041698;28;62083;-77
2024/01/21 00:31:26;;;;;;;;;31.00;25.33;;;;;;;;5040704;28;62557;-77
2024/01/21 00:33:51;;;;;;;;;27.00;19.67;;;;;;;;5047127;28;61779;-77
2024/01/21 00:36:16;;;;;;;;;36.00;26.67;;;;;;;;5004411;28;61926;-77
2024/01/21 00:38:42;;;;;;;;;32.67;23.00;;;;;;;;5022493;28;61759;-77
2024/01/21 00:41:07;;;;;;;;;30.67;26.00;;;;;;;;5021408;28;62218;-78
2024/01/21 00:43:32;;;;;;;;;31.67;26.00;;;;;;;;5022512;28;61855;-77
2024/01/21 00:45:58;;;;;;;;;28.67;22.33;;;;;;;;5022245;28;62099;-77
2024/01/21 00:48:23;;;;;;;;;30.67;24.00;;;;;;;;5004471;28;61867;-76
2024/01/21 00:50:48;;;;;;;;;27.33;21.33;;;;;;;;5020890;28;64685;-77
2024/01/21 00:53:14;;;;;;;;;32.67;25.33;;;;;;;;5041934;28;62179;-77
2024/01/21 00:55:39;;;;;;;;;27.75;25.00;;;;;;;;5042275;28;61873;-77
2024/01/21 00:58:04;;;;;;;;;27.00;23.50;;;;;;;;5023885;28;61994;-77
2024/01/21 01:00:29;;;;;;;;;26.00;20.50;;;;;;;;5040992;28;61973;-76
2024/01/21 01:02:54;;;;;;;;;29.25;19.50;;;;;;;;5041815;28;61851;-76
2024/01/21 01:05:20;;;;;;;;;23.67;20.00;;;;;;;;5041819;28;61732;-76
2024/01/21 01:07:45;;;;;;;;;29.50;20.00;;;;;;;;5042406;28;61936;-77
2024/01/21 01:10:10;;;;;;;;;26.75;17.25;;;;;;;;5040742;28;61851;-77
2024/01/21 01:12:35;;;;;;;;;25.67;18.67;;;;;;;;5041975;28;62121;-77
2024/01/21 01:15:01;;;;;;;;;23.00;18.00;;;;;;;;5024119;28;61819;-78
2024/01/21 01:17:26;;;;;;;;;27.33;21.33;;;;;;;;5041659;28;62504;-78
2024/01/21 01:19:51;;;;;;;;;27.67;19.67;;;;;;;;5023363;28;63588;-78
2024/01/21 01:22:16;;;;;;;;;26.50;23.00;;;;;;;;5041614;28;62001;-77
2024/01/21 01:24:42;;;;;;;;;30.75;22.00;;;;;;;;5041528;28;61839;-77
2024/01/21 01:27:07;;;;;;;;;20.50;17.75;;;;;;;;5023723;28;62140;-77
2024/01/21 01:29:32;;;;;;;;;24.00;19.50;;;;;;;;5040724;28;61767;-78
2024/01/21 01:31:57;;;;;;;;;25.25;20.00;;;;;;;;5047449;28;62008;-78
2024/01/21 01:34:22;;;;;;;;;27.75;18.25;;;;;;;;5025962;28;61827;-78
2024/01/21 01:36:48;;;;;;;;;22.00;21.50;;;;;;;;5003322;28;61757;-77
2024/01/21 01:39:13;;;;;;;;;24.33;18.67;;;;;;;;5020642;28;61993;-78
2024/01/21 01:41:38;;;;;;;;;32.33;23.33;;;;;;;;5029365;28;62085;-78
2024/01/21 01:44:03;;;;;;;;;18.50;17.00;;;;;;;;5041470;28;62093;-77
2024/01/21 01:46:28;;;;;;;;;22.67;19.00;;;;;;;;5041200;28;61998;-78
2024/01/21 01:48:54;;;;;;;;;22.25;14.25;;;;;;;;5040879;28;62712;-77
2024/01/21 01:51:19;;;;;;;;;32.75;19.00;;;;;;;;5041248;28;61784;-78
2024/01/21 01:53:45;;;;;;;;;22.75;16.25;;;;;;;;5023271;28;62472;-78
2024/01/21 01:56:11;;;;;;;;;20.75;19.75;;;;;;;;5023505;28;61946;-77
2024/01/21 01:58:37;;;;;;;;;26.00;22.00;;;;;;;;5040193;28;61945;-78
2024/01/21 02:01:02;;;;;;;;;25.00;17.25;;;;;;;;5040216;28;62456;-78
2024/01/21 02:03:28;;;;;;;;;24.50;18.25;;;;;;;;5023167;28;61875;-77
2024/01/21 02:05:53;;;;;;;;;23.00;19.00;;;;;;;;5041775;28;61756;-77
2024/01/21 02:08:19;;;;;;;;;16.50;15.50;;;;;;;;5040303;28;61775;-76
2024/01/21 02:10:44;;;;;;;;;22.50;14.00;;;;;;;;5041200;28;62093;-77
2024/01/21 02:13:09;;;;;;;;;26.50;19.25;;;;;;;;5041126;28;62004;-78
2024/01/21 02:15:34;;;;;;;;;22.33;18.33;;;;;;;;5041335;28;62212;-78
2024/01/21 02:18:00;;;;;;;;;16.25;15.50;;;;;;;;5040039;28;61873;-76
2024/01/21 02:20:25;;;;;;;;;24.00;20.00;;;;;;;;5040782;28;62054;-77
2024/01/21 02:22:50;;;;;;;;;27.00;20.00;;;;;;;;5022911;28;61777;-77
2024/01/21 02:25:16;;;;;;;;;19.00;14.00;;;;;;;;5041133;28;61945;-76
2024/01/21 02:27:41;;;;;;;;;18.75;14.50;;;;;;;;5040239;28;62778;-77
2024/01/21 02:30:06;;;;;;;;;18.25;17.25;;;;;;;;5021932;28;61793;-76
2024/01/21 02:32:31;;;;;;;;;27.00;16.50;;;;;;;;5037844;28;61956;-77
2024/01/21 02:34:57;;;;;;;;;31.00;20.25;;;;;;;;5041003;28;61963;-76
2024/01/21 02:37:22;;;;;;;;;26.75;19.00;;;;;;;;5039993;28;61843;-76
2024/01/21 02:39:47;;;;;;;;;16.50;13.50;;;;;;;;5040676;28;62026;-77
2024/01/21 02:42:12;;;;;;;;;25.25;19.50;;;;;;;;5040617;28;61736;-76
2024/01/21 02:44:37;;;;;;;;;15.50;14.00;;;;;;;;5040762;28;62185;-76
2024/01/21 02:47:03;;;;;;;;;19.25;14.00;;;;;;;;5040089;28;62818;-76
2024/01/21 02:49:28;;;;;;;;;25.25;17.00;;;;;;;;5043558;28;61731;-77
2024/01/21 02:51:57;;;;;;;;;21.50;16.50;;;;;;;;5043813;28;62348;-76
2024/01/21 02:54:22;;;;;;;;;24.50;14.75;;;;;;;;5026164;28;61988;-77
2024/01/21 02:56:48;;;;;;;;;17.75;16.00;;;;;;;;5043074;28;61862;-76
2024/01/21 02:59:13;;;;;;;;;19.00;17.00;;;;;;;;5043308;28;61871;-77
2024/01/21 03:01:38;;;;;;;;;28.75;20.00;;;;;;;;5025470;28;61927;-77
2024/01/21 03:04:03;;;;;;;;;23.25;17.75;;;;;;;;5043980;28;61823;-77
2024/01/21 03:06:29;;;;;;;;;18.25;15.00;;;;;;;;5025018;28;65093;-77
2024/01/21 03:08:54;;;;;;;;;8.50;5.00;;;;;;;;5043940;28;62499;-77
2024/01/21 03:11:19;;;;;;;;;16.50;13.00;;;;;;;;5043706;28;61771;-77
2024/01/21 03:13:44;;;;;;;;;16.50;14.50;;;;;;;;5043897;28;62212;-77
2024/01/21 03:16:10;;;;;;;;;25.50;16.75;;;;;;;;5043011;28;61763;-77
2024/01/21 03:18:38;;;;;;;;;20.00;13.25;;;;;;;;5043345;28;62110;-77
2024/01/21 03:21:04;;;;;;;;;30.25;19.00;;;;;;;;5043487;28;62031;-77
2024/01/21 03:23:29;;;;;;;;;20.75;18.50;;;;;;;;5026060;28;62088;-77
2024/01/21 03:25:54;;;;;;;;;21.50;14.75;;;;;;;;5042741;28;61796;-77
2024/01/21 03:28:19;;;;;;;;;28.00;15.25;;;;;;;;5043542;28;61880;-77
2024/01/21 03:30:45;;;;;;;;;20.50;16.25;;;;;;;;5042786;28;61796;-77
2024/01/21 03:33:10;;;;;;;;;25.25;19.00;;;;;;;;5019406;28;64690;-77
2024/01/21 03:35:35;;;;;;;;;23.50;17.50;;;;;;;;5022701;28;62739;-77
2024/01/21 03:38:01;;;;;;;;;22.75;16.25;;;;;;;;5022974;28;62039;-77
2024/01/21 03:40:26;;;;;;;;;16.75;16.25;;;;;;;;5023680;28;61749;-77
2024/01/21 03:42:52;;;;;;;;;20.00;16.50;;;;;;;;5021940;28;62262;-77
2024/01/21 03:45:17;;;;;;;;;17.00;14.00;;;;;;;;5023035;28;61874;-77
2024/01/21 03:47:42;;;;;;;;;15.00;14.00;;;;;;;;5023344;28;62223;-77
2024/01/21 03:50:07;;;;;;;;;18.00;13.75;;;;;;;;5022670;28;61871;-77
2024/01/21 03:52:33;;;;;;;;;32.00;15.50;;;;;;;;5005564;28;61872;-77
2024/01/21 03:54:58;;;;;;;;;19.50;16.25;;;;;;;;5022463;28;62889;-77
2024/01/21 03:57:23;;;;;;;;;17.25;13.50;;;;;;;;5023109;28;61780;-77
2024/01/21 03:59:48;;;;;;;;;18.00;14.25;;;;;;;;5022231;28;61804;-78
2024/01/21 04:02:14;;;;;;;;;19.50;13.75;;;;;;;;5025932;28;61949;-77
2024/01/21 04:04:39;;;;;;;;;12.50;11.00;;;;;;;;5024020;28;63722;-77
2024/01/21 04:07:04;;;;;;;;;15.25;12.50;;;;;;;;5042546;28;62040;-77
2024/01/21 04:09:30;;;;;;;;;16.50;14.00;;;;;;;;5043039;28;61756;-77
2024/01/21 04:11:56;;;;;;;;;20.00;12.75;;;;;;;;5024960;28;62088;-77
2024/01/21 04:14:21;;;;;;;;;22.25;15.75;;;;;;;;5042159;28;62018;-77
2024/01/21 04:16:46;;;;;;;;;15.25;14.00;;;;;;;;5042947;28;61733;-77
2024/01/21 04:19:12;;;;;;;;;15.75;14.00;;;;;;;;5042264;28;61941;-77
2024/01/21 04:21:37;;;;;;;;;20.50;13.25;;;;;;;;5042935;28;61777;-77
2024/01/21 04:24:03;;;;;;;;;16.75;11.00;;;;;;;;5041743;28;62052;-77
2024/01/21 04:26:30;;;;;;;;;18.50;14.00;;;;;;;;5024698;28;61922;-77
2024/01/21 04:28:56;;;;;;;;;17.25;13.75;;;;;;;;5041899;28;61847;-77
2024/01/21 04:31:21;;;;;;;;;20.25;14.75;;;;;;;;5020817;28;62064;-76
2024/01/21 04:33:46;;;;;;;;;18.25;14.00;;;;;;;;5033621;28;61894;-77
2024/01/21 04:36:16;;;;;;;;;24.50;17.75;;;;;;;;5022193;28;61773;-77
2024/01/21 04:38:41;;;;;;;;;16.00;14.00;;;;;;;;5022444;28;61973;-77
2024/01/21 04:41:07;;;;;;;;;14.75;14.25;;;;;;;;5026221;28;61932;-77
2024/01/21 04:43:32;;;;;;;;;11.25;11.25;;;;;;;;5041888;28;62746;-77
2024/01/21 04:45:57;;;;;;;;;16.50;11.50;;;;;;;;5042253;28;61777;-77
2024/01/21 04:48:22;;;;;;;;;18.00;12.25;;;;;;;;5042286;28;61805;-77
2024/01/21 04:50:48;;;;;;;;;11.50;10.00;;;;;;;;5024508;28;62078;-77
2024/01/21 04:53:13;;;;;;;;;11.75;11.50;;;;;;;;5041587;28;61872;-77
2024/01/21 04:55:38;;;;;;;;;19.00;10.00;;;;;;;;5042472;28;62120;-76
2024/01/21 04:58:03;;;;;;;;;25.50;11.50;;;;;;;;5023952;28;61697;-77
2024/01/21 05:00:28;;;;;;;;;17.25;13.00;;;;;;;;5041488;28;61951;-77
2024/01/21 05:02:53;;;;;;;;;16.50;10.25;;;;;;;;5041605;28;61720;-77
2024/01/21 05:05:19;;;;;;;;;17.00;12.50;;;;;;;;5041933;28;61758;-77
2024/01/21 05:07:44;;;;;;;;;18.50;14.00;;;;;;;;5042261;28;61941;-77
2024/01/21 05:10:09;;;;;;;;;15.75;8.00;;;;;;;;5041348;28;62147;-77
2024/01/21 05:12:34;;;;;;;;;11.00;10.00;;;;;;;;5041250;28;61927;-77
2024/01/21 05:15:00;;;;;;;;;13.50;9.75;;;;;;;;5023602;28;62996;-77
2024/01/21 05:17:25;;;;;;;;;15.00;14.25;;;;;;;;5041513;28;61799;-77
2024/01/21 05:19:50;;;;;;;;;16.50;14.00;;;;;;;;5041983;28;61861;-77
2024/01/21 05:22:15;;;;;;;;;10.25;8.00;;;;;;;;5040876;28;62078;-77
2024/01/21 05:24:41;;;;;;;;;12.00;11.00;;;;;;;;5042051;28;62152;-77
2024/01/21 05:27:06;;;;;;;;;23.00;14.00;;;;;;;;5023743;28;61919;-77
2024/01/21 05:29:31;;;;;;;;;16.50;9.50;;;;;;;;5023102;28;61891;-77
2024/01/21 05:31:56;;;;;;;;;15.75;12.50;;;;;;;;5040389;28;62046;-77
2024/01/21 05:34:21;;;;;;;;;17.75;11.00;;;;;;;;5041270;28;61671;-77
2024/01/21 05:36:46;;;;;;;;;11.75;10.25;;;;;;;;5041464;28;61951;-77
2024/01/21 05:39:13;;;;;;;;;12.00;11.00;;;;;;;;5041471;28;61821;-77
2024/01/21 05:41:39;;;;;;;;;18.50;11.75;;;;;;;;5022899;28;65034;-77
2024/01/21 05:44:04;;;;;;;;;16.00;10.75;;;;;;;;5040285;28;62073;-77
2024/01/21 05:46:29;;;;;;;;;21.75;21.00;;;;;;;;5040864;28;61825;-77
2024/01/21 05:48:55;;;;;;;;;12.00;10.75;;;;;;;;5040934;28;61751;-77
2024/01/21 05:51:25;;;;;;;;;17.25;16.25;;;;;;;;5040797;28;62897;-77
2024/01/21 05:53:51;;;;;;;;;13.75;11.75;;;;;;;;5041638;28;61927;-77
2024/01/21 05:56:17;;;;;;;;;18.25;11.25;;;;;;;;5041691;28;61911;-77
2024/01/21 05:58:42;;;;;;;;;15.00;12.00;;;;;;;;5022982;28;61942;-77
2024/01/21 06:01:07;;;;;;;;;18.50;9.25;;;;;;;;5040373;28;63051;-76
2024/01/21 06:03:32;;;;;;;;;13.00;9.75;;;;;;;;5041229;28;61999;-77
2024/01/21 06:05:58;;;;;;;;;9.00;8.75;;;;;;;;5041576;28;61915;-77
2024/01/21 06:08:23;;;;;;;;;8.50;8.50;;;;;;;;5023466;28;62076;-77
2024/01/21 06:10:48;;;;;;;;;9.50;9.50;;;;;;;;5022771;28;64008;-77
2024/01/21 06:13:13;;;;;;;;;8.50;8.00;;;;;;;;5040896;28;62054;-77
2024/01/21 06:15:39;;;;;;;;;9.25;7.50;;;;;;;;5041865;28;62352;-77
2024/01/21 06:18:04;;;;;;;;;13.50;8.50;;;;;;;;5040969;28;61983;-77
2024/01/21 06:20:29;;;;;;;;;19.75;12.00;;;;;;;;5039863;28;61938;-77
2024/01/21 06:22:54;;;;;;;;;15.50;9.50;;;;;;;;5043557;28;61971;-77
2024/01/21 06:25:21;;;;;;;;;14.75;11.00;;;;;;;;5044641;28;61831;-77
2024/01/21 06:27:46;;;;;;;;;9.25;9.25;;;;;;;;5044291;28;61969;-77
2024/01/21 06:30:14;;;;;;;;;8.00;8.00;;;;;;;;5043097;28;62737;-77
2024/01/21 06:32:40;;;;;;;;;11.00;10.50;;;;;;;;5041143;28;62514;-77
2024/01/21 06:35:05;;;;;;;;;8.25;8.25;;;;;;;;5043828;28;61929;-77
2024/01/21 06:37:31;;;;;;;;;12.50;8.00;;;;;;;;5044395;28;61896;-77
2024/01/21 06:39:56;;;;;;;;;11.75;7.50;;;;;;;;5043638;28;61733;-77
2024/01/21 06:42:21;;;;;;;;;9.25;8.00;;;;;;;;5043961;28;61809;-77
2024/01/21 06:44:46;;;;;;;;;8.25;8.25;;;;;;;;5044287;28;61692;-77
2024/01/21 06:47:12;;;;;;;;;10.50;10.50;;;;;;;;5044541;28;61871;-77
2024/01/21 06:49:37;;;;;;;;;14.00;9.75;;;;;;;;5043463;28;62940;-77
2024/01/21 06:52:04;;;;;;;;;9.50;8.00;;;;;;;;5043963;28;61758;-77
2024/01/21 06:54:29;;;;;;;;;9.75;8.00;;;;;;;;5026094;28;61891;-77
2024/01/21 06:56:54;;;;;;;;;8.50;7.25;;;;;;;;5043411;28;61958;-77
2024/01/21 06:59:24;;;;;;;;;10.25;9.25;;;;;;;;5042471;28;61829;-77
2024/01/21 07:01:50;;;;;;;;;15.75;9.50;;;;;;;;5043544;28;61860;-78
2024/01/21 07:04:18;;;;;;;;;8.25;8.25;;;;;;;;5043932;28;61778;-78
2024/01/21 07:06:43;;;;;;;;;10.50;8.00;;;;;;;;5025655;28;61868;-77
2024/01/21 07:09:10;;;;;;;;;8.00;7.00;;;;;;;;5043165;28;62252;-77
2024/01/21 07:11:35;;;;;;;;;17.75;6.25;;;;;;;;5024923;28;62014;-77
2024/01/21 07:14:01;;;;;;;;;12.00;10.00;;;;;;;;5025486;28;62159;-77
2024/01/21 07:16:26;;;;;;;;;10.00;8.75;;;;;;;;5043960;28;61706;-77
2024/01/21 07:18:51;;;;;;;;;15.75;13.75;;;;;;;;5025040;28;65000;-77
2024/01/21 07:21:16;;;;;;;;;13.00;9.00;;;;;;;;5043451;28;61871;-77
2024/01/21 07:23:41;;;;;;;;;11.00;9.50;;;;;;;;5025518;28;61997;-77
2024/01/21 07:26:07;;;;;;;;;11.50;8.75;;;;;;;;5043059;28;61753;-77
2024/01/21 07:28:32;;;;;;;;;17.25;11.50;;;;;;;;5037030;28;62590;-76
2024/01/21 07:30:58;;;;;;;;;15.00;10.00;;;;;;;;5022222;28;62074;-77
2024/01/21 07:33:23;;;;;;;;;10.75;8.00;;;;;;;;5023271;28;62045;-76
2024/01/21 07:35:50;;;;;;;;;12.75;11.50;;;;;;;;5042644;28;62083;-77
2024/01/21 07:38:15;;;;;;;;;13.00;11.75;;;;;;;;5023330;28;64753;-77
2024/01/21 07:40:41;;;;;;;;;11.75;8.75;;;;;;;;5042631;28;61762;-77
2024/01/21 07:43:07;;;;;;;;;12.25;11.00;;;;;;;;5043230;28;61770;-76
2024/01/21 07:45:32;;;;;;;;;8.00;8.00;;;;;;;;5025281;28;62090;-76
2024/01/21 07:47:58;;;;;;;;;16.25;8.25;;;;;;;;5023943;28;63535;-76
2024/01/21 07:50:23;;;;;;;;;13.50;8.25;;;;;;;;5040406;28;61852;-76
2024/01/21 07:52:48;;;;;;;;;17.25;11.75;;;;;;;;5024917;28;61720;-76
2024/01/21 07:55:14;;;;;;;;;12.50;10.50;;;;;;;;5042168;28;62153;-77
2024/01/21 07:57:39;;;;;;;;;17.25;15.00;;;;;;;;5023625;28;63655;-77
2024/01/21 08:00:04;;;;;;;;;17.00;9.00;;;;;;;;5041296;28;61782;-76
2024/01/21 08:02:30;;;;;;;;;15.00;11.25;;;;;;;;5042571;28;61734;-76
2024/01/21 08:04:55;;;;;;;;;17.75;12.50;;;;;;;;5025043;28;62142;-76
2024/01/21 08:07:20;;;;;;;;;13.75;10.50;;;;;;;;5041266;28;61978;-76
2024/01/21 08:09:46;;;;;;;;;10.50;9.00;;;;;;;;5024149;28;62044;-76
2024/01/21 08:12:11;;;;;;;;;18.00;11.00;;;;;;;;5041941;28;62028;-76
2024/01/21 08:14:36;;;;;;;;;14.75;11.50;;;;;;;;5042845;28;62046;-77
2024/01/21 08:17:02;;;;;;;;;10.75;9.50;;;;;;;;5041393;28;62549;-76
2024/01/21 08:19:28;;;;;;;;;14.00;10.00;;;;;;;;5042023;28;61997;-77
2024/01/21 08:21:53;;;;;;;;;16.75;11.75;;;;;;;;5042382;28;62165;-78
2024/01/21 08:24:18;;;;;;;;;14.75;10.50;;;;;;;;5031040;28;61882;-79
2024/01/21 08:26:43;;;;;;;;;17.50;11.00;;;;;;;;5003983;28;63477;-79
2024/01/21 08:29:08;;;;;;;;;13.50;12.50;;;;;;;;5031604;28;61975;-79
2024/01/21 08:31:40;;;;;;;;;16.25;12.75;;;;;;;;5045047;28;61708;-79
2024/01/21 08:34:05;;;;;;;;;13.50;10.25;;;;;;;;5032178;28;62165;-79
2024/01/21 08:36:30;;;;;;;;;14.25;13.00;;;;;;;;5041368;28;61867;-77
2024/01/21 08:38:55;;;;;;;;;16.25;12.25;;;;;;;;5023513;28;61939;-80
2024/01/21 08:41:21;;;;;;;;;12.75;11.50;;;;;;;;5020829;28;62455;-78
2024/01/21 08:43:46;;;;;;;;;10.75;7.50;;;;;;;;5041788;28;62087;-78
2024/01/21 08:46:11;;;;;;;;;11.25;11.00;;;;;;;;5020945;28;63797;-75
2024/01/21 08:48:36;;;;;;;;;19.75;12.00;;;;;;;;5041151;28;62587;-77
2024/01/21 08:51:02;;;;;;;;;15.50;12.25;;;;;;;;5041980;28;61870;-79
2024/01/21 08:53:27;;;;;;;;;13.75;5.75;;;;;;;;5041698;28;61914;-78
2024/01/21 08:55:52;;;;;;;;;19.75;12.00;;;;;;;;5041382;28;61831;-77
2024/01/21 08:58:17;;;;;;;;;6.25;0.00;;;;;;;;5041812;28;61799;-77
2024/01/21 09:00:43;;;;;;;;;17.25;11.75;;;;;;;;5041147;28;62070;-77
2024/01/21 09:03:08;;;;;;;;;15.50;9.00;;;;;;;;5041343;28;62165;-77
2024/01/21 09:05:33;;;;;;;;;10.25;8.75;;;;;;;;5039948;28;62069;-77
2024/01/21 09:07:58;;;;;;;;;10.00;8.00;;;;;;;;5022116;28;61928;-77
2024/01/21 09:10:24;;;;;;;;;11.25;9.25;;;;;;;;5022861;28;61891;-77
2024/01/21 09:12:49;;;;;;;;;16.50;12.00;;;;;;;;5040809;28;62053;-77
2024/01/21 09:15:14;;;;;;;;;13.00;11.25;;;;;;;;5039956;28;62780;-78
2024/01/21 09:17:41;;;;;;;;;11.25;9.50;;;;;;;;5021747;28;62280;-77
2024/01/21 09:20:07;;;;;;;;;16.00;12.50;;;;;;;;5040016;28;61967;-77
2024/01/21 09:22:32;;;;;;;;;11.75;10.25;;;;;;;;5039023;28;62018;-76
2024/01/21 09:24:57;;;;;;;;;10.00;10.00;;;;;;;;5039838;28;62027;-77
2024/01/21 09:27:23;;;;;;;;;13.75;11.00;;;;;;;;5039950;28;61930;-76
2024/01/21 09:29:48;;;;;;;;;14.25;10.00;;;;;;;;5039573;28;61882;-77
2024/01/21 09:32:13;;;;;;;;;12.50;10.25;;;;;;;;5040891;28;61909;-77
2024/01/21 09:34:43;;;;;;;;;17.25;9.25;;;;;;;;5039117;28;62635;-77
2024/01/21 09:37:08;;;;;;;;;11.25;8.50;;;;;;;;5021408;28;61938;-77
2024/01/21 09:39:33;;;;;;;;;10.00;8.00;;;;;;;;5039958;28;62014;-76
2024/01/21 09:41:59;;;;;;;;;11.75;9.00;;;;;;;;5040191;28;61813;-77
2024/01/21 09:44:28;;;;;;;;;10.00;10.00;;;;;;;;5039824;28;62296;-75
2024/01/21 09:46:55;;;;;;;;;11.00;10.00;;;;;;;;5042879;28;61329;-75
2024/01/21 09:49:20;;;;;;;;;20.00;10.00;;;;;;;;5031512;28;62073;-75
2024/01/21 09:51:49;;;;;;;;;9.50;6.75;;;;;;;;5037910;28;62179;-78
2024/01/21 09:54:15;;;;;;;;;17.00;9.25;;;;;;;;5022847;28;63765;-78
2024/01/21 09:56:43;;;;;;;;;11.00;10.00;;;;;;;;5045832;28;61938;-77
2024/01/21 09:59:10;;;;;;;;;11.25;9.75;;;;;;;;5025073;28;61776;-78
2024/01/21 10:01:40;;;;;;;;;12.25;10.00;;;;;;;;5025985;28;61921;-78
2024/01/21 10:04:05;;;;;;;;;9.75;9.00;;;;;;;;5042574;28;62136;-77
2024/01/21 10:06:31;;;;;;;;;12.75;11.50;;;;;;;;5015428;28;61899;-77
2024/01/21 10:09:16;;;;;;;;;16.25;13.00;;;;;;;;5043916;28;62013;-77
2024/01/21 10:11:41;;;;;;;;;19.25;18.25;;;;;;;;5044232;28;62010;-76
2024/01/21 10:14:06;;;;;;;;;25.00;20.00;;;;;;;;5043008;28;61961;-78
2024/01/21 10:16:32;;;;;;;;;23.50;17.75;;;;;;;;5043589;28;62282;-77
2024/01/21 10:18:57;;;;;;;;;20.25;18.75;;;;;;;;5043949;28;62588;-78
2024/01/21 10:21:22;;;;;;;;;12.50;10.00;;;;;;;;5026189;28;61979;-78
2024/01/21 10:23:48;;;;;;;;;28.25;21.25;;;;;;;;5043626;28;61966;-78
2024/01/21 10:26:13;;;;;;;;;20.00;16.00;;;;;;;;5044130;28;61919;-78
2024/01/21 10:28:41;;;;;;;;;13.75;12.75;;;;;;;;5044154;28;61919;-78
2024/01/21 10:31:07;;;;;;;;;11.75;9.50;;;;;;;;5021676;28;62133;-81
2024/01/21 10:33:32;;;;;;;;;12.25;9.50;;;;;;;;5010255;28;62929;-80
2024/01/21 10:36:00;;;;;;;;;8.75;7.25;;;;;;;;5023816;28;61905;-79
2024/01/21 10:38:28;;;;;;;;;9.00;8.00;;;;;;;;5023800;28;62124;-78
2024/01/21 10:40:54;;;;;;;;;9.75;9.75;;;;;;;;5022302;28;61766;-80
2024/01/21 10:43:19;;;;;;;;;12.75;10.50;;;;;;;;5022221;28;62712;-79
2024/01/21 10:45:45;;;;;;;;;11.50;10.50;;;;;;;;5021645;28;61804;-79
2024/01/21 10:48:13;;;;;;;;;10.75;10.00;;;;;;;;5021077;28;61904;-79
2024/01/21 10:50:42;;;;;;;;;10.25;9.75;;;;;;;;5021553;28;62010;-79
2024/01/21 10:53:10;;;;;;;;;9.00;8.75;;;;;;;;5019598;28;62307;-77
2024/01/21 10:55:36;;;;;;;;;11.25;9.00;;;;;;;;5020891;28;62059;-77
2024/01/21 10:58:01;;;;;;;;;11.25;7.00;;;;;;;;5022435;28;61837;-78
2024/01/21 11:00:27;;;;;;;;;11.25;9.00;;;;;;;;5021400;28;62089;-79
2024/01/21 11:03:11;;;;;;;;;10.00;9.00;;;;;;;;5021919;28;61758;-79
2024/01/21 11:05:36;;;;;;;;;12.00;10.50;;;;;;;;5022656;28;61757;-79
2024/01/21 11:08:03;;;;;;;;;12.50;12.50;;;;;;;;5019487;28;62410;-77
2024/01/21 11:10:28;;;;;;;;;12.75;12.75;;;;;;;;5021811;28;61873;-81
2024/01/21 11:12:57;;;;;;;;;15.00;10.00;;;;;;;;5020125;28;63928;-80
2024/01/21 11:15:29;;;;;;;;;14.25;10.00;;;;;;;;5021486;28;61822;-77
2024/01/21 11:18:10;;;;;;;;;10.00;9.25;;;;;;;;5021875;28;61992;-77
2024/01/21 11:20:35;;;;;;;;;15.00;13.00;;;;;;;;5021028;28;62179;-76
2024/01/21 11:23:00;;;;;;;;;10.00;9.75;;;;;;;;5021298;28;61940;-77
2024/01/21 11:25:31;;;;;;;;;13.25;10.00;;;;;;;;5020573;28;62049;-77
2024/01/21 11:27:57;;;;;;;;;14.00;11.75;;;;;;;;5020741;28;61872;-83
2024/01/21 11:30:24;;;;;;;;;13.75;9.50;;;;;;;;5024507;28;62257;-77
2024/01/21 11:32:57;;;;;;;;;18.25;12.25;;;;;;;;5021104;28;63950;-76
2024/01/21 11:35:22;;;;;;;;;10.75;8.50;;;;;;;;5041308;28;61805;-75
2024/01/21 11:37:52;;;;;;;;;12.00;9.25;;;;;;;;5023694;28;62115;-77
2024/01/21 11:40:18;;;;;;;;;14.75;8.75;;;;;;;;5031065;28;61745;-76
2024/01/21 11:42:45;;;;;;;;;13.75;12.75;;;;;;;;5040662;28;61864;-77
2024/01/21 11:45:11;;;;;;;;;13.75;11.75;;;;;;;;5042286;28;61747;-77
2024/01/21 11:47:37;;;;;;;;;11.00;10.00;;;;;;;;5041721;28;61626;-76
2024/01/21 11:50:02;;;;;;;;;15.75;11.25;;;;;;;;5022966;28;61888;-76
2024/01/21 11:52:28;;;;;;;;;14.00;11.25;;;;;;;;5041286;28;62453;-76
2024/01/21 11:54:53;;;;;;;;;18.75;11.25;;;;;;;;5041931;28;62034;-79
2024/01/21 11:57:19;;;;;;;;;15.00;13.25;;;;;;;;5042505;28;61783;-78
2024/01/21 11:59:45;;;;;;;;;20.00;16.00;;;;;;;;5041307;28;62193;-77
2024/01/21 12:02:10;;;;;;;;;11.25;10.50;;;;;;;;5033827;28;62659;-76
2024/01/21 12:04:38;;;;;;;;;11.25;10.75;;;;;;;;5041326;28;62178;-77
2024/01/21 12:07:04;;;;;;;;;17.75;17.75;;;;;;;;5042095;28;61830;-78
2024/01/21 12:09:29;;;;;;;;;16.00;15.00;;;;;;;;5031204;28;61885;-79
2024/01/21 12:11:54;;;;;;;;;23.50;14.25;;;;;;;;5040960;28;61830;-76
2024/01/21 12:14:20;;;;;;;;;14.75;11.00;;;;;;;;5024015;28;62082;-77
2024/01/21 12:16:49;;;;;;;;;27.50;14.75;;;;;;;;5041410;28;62077;-77
2024/01/21 12:19:15;;;;;;;;;16.25;11.00;;;;;;;;5023882;28;62185;-77
2024/01/21 12:21:42;;;;;;;;;14.75;14.25;;;;;;;;5040686;28;61836;-77
2024/01/21 12:24:07;;;;;;;;;16.25;14.25;;;;;;;;5024215;28;61923;-77
2024/01/21 12:26:32;;;;;;;;;10.50;10.50;;;;;;;;5042266;28;61750;-78
2024/01/21 12:29:03;;;;;;;;;12.00;11.75;;;;;;;;5041100;28;62133;-76
2024/01/21 12:31:31;;;;;;;;;12.25;7.50;;;;;;;;5040227;28;61825;-77
2024/01/21 12:33:57;;;;;;;;;14.00;11.50;;;;;;;;5022111;28;62957;-77
2024/01/21 12:36:22;;;;;;;;;15.25;13.50;;;;;;;;5045345;28;61941;-78
2024/01/21 12:38:49;;;;;;;;;15.75;13.75;;;;;;;;5024294;28;62913;-78
2024/01/21 12:41:15;;;;;;;;;14.50;10.75;;;;;;;;5022962;28;63779;-77
2024/01/21 12:43:41;;;;;;;;;17.50;13.00;;;;;;;;5022883;28;62029;-78
2024/01/21 12:46:07;;;;;;;;;14.50;12.00;;;;;;;;5041465;28;61830;-77
2024/01/21 12:48:32;;;;;;;;;19.50;11.00;;;;;;;;5022986;28;62019;-78
2024/01/21 12:50:57;;;;;;;;;21.00;16.50;;;;;;;;5039292;28;62354;-79
2024/01/21 12:53:22;;;;;;;;;18.50;11.50;;;;;;;;5039043;28;61836;-77
2024/01/21 12:55:47;;;;;;;;;10.75;9.75;;;;;;;;5021852;28;61786;-76
2024/01/21 12:58:13;;;;;;;;;11.25;11.00;;;;;;;;5039687;28;62173;-76
2024/01/21 13:00:39;;;;;;;;;18.00;14.00;;;;;;;;5038622;28;61982;-77
2024/01/21 13:03:05;;;;;;;;;17.50;11.00;;;;;;;;5040541;28;61905;-77
2024/01/21 13:05:30;;;;;;;;;11.50;11.00;;;;;;;;5040944;28;61772;-77
2024/01/21 13:07:58;;;;;;;;;12.75;12.75;;;;;;;;5023162;28;62091;-77
2024/01/21 13:10:23;;;;;;;;;10.50;10.25;;;;;;;;5040473;28;61800;-77
2024/01/21 13:12:48;;;;;;;;;15.50;12.00;;;;;;;;5041228;28;61974;-78
2024/01/21 13:15:14;;;;;;;;;18.25;10.00;;;;;;;;5020857;28;61789;-76
2024/01/21 13:17:39;;;;;;;;;11.00;10.25;;;;;;;;5020236;28;61926;-76
2024/01/21 13:20:06;;;;;;;;;10.50;8.50;;;;;;;;5038575;28;62762;-75
2024/01/21 13:22:32;;;;;;;;;10.75;8.75;;;;;;;;5039355;28;62058;-76
2024/01/21 13:24:58;;;;;;;;;15.25;13.50;;;;;;;;5037143;28;61897;-76
2024/01/21 13:27:27;;;;;;;;;9.50;9.50;;;;;;;;5021994;28;61844;-74
2024/01/21 13:32:37;;;;;;;;;19.50;15.00;;;;;;;;5038682;28;61870;-75
2024/01/21 13:35:02;;;;;;;;;13.25;9.50;;;;;;;;5038887;28;61817;-74
2024/01/21 13:37:28;;;;;;;;;14.25;13.00;;;;;;;;5021480;28;61880;-75
2024/01/21 13:39:53;;;;;;;;;14.50;11.25;;;;;;;;5020070;28;64741;-77
2024/01/21 13:42:18;;;;;;;;;15.75;11.75;;;;;;;;5039343;28;61883;-77
2024/01/21 13:44:43;;;;;;;;;12.00;10.00;;;;;;;;5039933;28;61889;-74
2024/01/21 13:47:09;;;;;;;;;11.75;11.75;;;;;;;;5040073;28;61864;-75
2024/01/21 13:49:35;;;;;;;;;7.00;7.00;;;;;;;;5016203;28;63673;-76
2024/01/21 13:52:01;;;;;;;;;15.75;13.75;;;;;;;;5021543;28;62037;-75
2024/01/21 13:54:27;;;;;;;;;13.50;9.50;;;;;;;;5039965;28;61749;-75
2024/01/21 13:56:52;;;;;;;;;11.00;10.00;;;;;;;;5038519;28;62548;-74
2024/01/21 13:59:17;;;;;;;;;18.75;16.00;;;;;;;;5035447;28;63127;-74
2024/01/21 14:01:43;;;;;;;;;19.25;13.50;;;;;;;;5038484;28;61938;-74
2024/01/21 14:04:08;;;;;;;;;11.75;8.25;;;;;;;;5017506;28;61827;-74
2024/01/21 14:06:33;;;;;;;;;14.75;11.25;;;;;;;;5019464;28;62788;-74
2024/01/21 14:08:59;;;;;;;;;15.50;13.00;;;;;;;;5038686;28;62785;-75
2024/01/21 14:11:24;;;;;;;;;16.00;13.50;;;;;;;;5021285;28;61782;-74
2024/01/21 14:13:50;;;;;;;;;14.00;9.50;;;;;;;;5021908;28;61959;-75
2024/01/21 14:16:17;;;;;;;;;14.00;10.75;;;;;;;;5021437;28;62015;-75